This is the latest recevied weather packets stored in our database for station/object VK5TRM-13. If no packets are shown the sender has not sent any weather packets the latest 10 day(s).
| Time | Temp. | Humidity | Pressure | Rain* | Wind** | Luminosity | Snow |
|---|---|---|---|---|---|---|---|
| 1778140805 | 15° C | 45% | 1028.6 hPa | 0 mm | - | - | - |
| 1778139905 | 15° C | 45% | 1028.6 hPa | 0 mm | - | - | - |
| 1778139005 | 16.11° C | 43% | 1028.4 hPa | 0 mm | - | - | - |
| 1778138105 | 16.11° C | 43% | 1028.4 hPa | 0 mm | - | - | - |
| 1778137204 | 15.56° C | 44% | 1028.3 hPa | 0 mm | - | - | - |
| 1778136304 | 15.56° C | 44% | 1028.3 hPa | 0 mm | - | - | - |
| 1778135404 | 16.67° C | 38% | 1028.3 hPa | 0 mm | - | - | - |
| 1778134504 | 16.67° C | 38% | 1028.3 hPa | 0 mm | - | - | - |
| 1778133605 | 16.67° C | 37% | 1028.5 hPa | 0 mm | - | - | - |
| 1778132705 | 16.67° C | 37% | 1028.5 hPa | 0 mm | - | - | - |
| 1778131806 | 16.11° C | 40% | 1028.5 hPa | 0 mm | - | - | - |
| 1778130904 | 16.11° C | 40% | 1028.5 hPa | 0 mm | - | - | - |
| 1778130005 | 16.67° C | 40% | 1028.7 hPa | 0 mm | - | - | - |
| 1778129105 | 16.67° C | 40% | 1028.7 hPa | 0 mm | - | - | - |
| 1778128204 | 15.56° C | 45% | 1029.1 hPa | 0 mm | - | - | - |
| 1778127304 | 15.56° C | 45% | 1029.1 hPa | 0 mm | - | - | - |
| 1778126404 | 15.56° C | 44% | 1029.2 hPa | 0 mm | - | - | - |
| 1778125504 | 15.56° C | 44% | 1029.2 hPa | 0 mm | - | - | - |
| 1778124605 | 15° C | 45% | 1029.5 hPa | 0 mm | - | - | - |
| 1778123705 | 15° C | 45% | 1029.5 hPa | 0 mm | - | - | - |
| 1778122804 | 15.56° C | 45% | 1029.6 hPa | 0 mm | - | - | - |
| 1778121904 | 15.56° C | 45% | 1029.6 hPa | 0 mm | - | - | - |
| 1778121005 | 14.44° C | 46% | 1030.1 hPa | 0 mm | - | - | - |
| 1778120105 | 14.44° C | 46% | 1030.1 hPa | 0 mm | - | - | - |
| 1778119204 | 13.89° C | 46% | 1030.1 hPa | 0 mm | - | - | - |
* Rain since midnight (hover to see other rain measurements)
** Current wind speed in m/s (hover to see current wind gust speed)